Time;durP1;ratioP1;P1;durP2;ratioP2;P2;SDS_P1;SDS_P2;PMS_P1;PMS_P2;Temp;Humidity;BMP_temperature;BMP_pressure;BME280_temperature;BME280_humidity;BME280_pressure;Samples;Min_cycle;Max_cycle;Signal;HPM_P1;HPM_P2
2021/03/13 00:01:57;;;;;;;;;;;11.10;99.90;;;;;;5023423;28;19925;-49
2021/03/13 00:04:24;;;;;;;;;;;11.10;99.90;;;;;;5056215;28;19928;-48
2021/03/13 00:06:51;;;;;;;;;;;11.10;99.90;;;;;;5057466;28;19964;-48
2021/03/13 00:09:19;;;;;;;;;;;11.20;99.90;;;;;;5056295;28;19947;-48
2021/03/13 00:11:46;;;;;;;;;;;11.20;99.90;;;;;;5023082;28;19929;-48
2021/03/13 00:14:13;;;;;;;;;;;11.30;99.90;;;;;;5057529;28;19925;-49
2021/03/13 00:16:40;;;;;;;;;;;11.30;99.90;;;;;;5056569;28;19929;-47
2021/03/13 00:19:08;;;;;;;;;;;11.40;99.90;;;;;;5039601;28;19940;-50
2021/03/13 00:21:35;;;;;;;;;;;11.40;99.90;;;;;;5057219;28;20303;-48
2021/03/13 00:24:02;;;;;;;;;;;11.40;99.90;;;;;;5056192;28;19924;-49
2021/03/13 00:26:29;;;;;;;;;;;11.40;99.90;;;;;;5056936;28;19932;-47
2021/03/13 00:28:58;;;;;;;;;;;11.40;99.90;;;;;;5039463;28;20367;-47
2021/03/13 00:31:25;;;;;;;;;;;11.40;99.90;;;;;;5055784;28;19978;-49
2021/03/13 00:33:52;;;;;;;;;;;11.30;99.90;;;;;;5023065;28;20007;-46
2021/03/13 00:36:20;;;;;;;;;;;11.30;99.90;;;;;;5055783;28;19925;-48
2021/03/13 00:38:50;;;;;;;;;;;11.30;99.90;;;;;;5022547;28;19925;-48
2021/03/13 00:41:17;;;;;;;;;;;11.20;99.90;;;;;;5055673;28;19933;-49
2021/03/13 00:43:44;;;;;;;;;;;11.10;99.90;;;;;;5056977;28;19975;-52
2021/03/13 00:46:14;;;;;;;;;;;11.00;99.90;;;;;;5055659;28;19932;-54
2021/03/13 00:48:47;;;;;;;;;;;10.90;99.90;;;;;;5038975;28;19925;-53
2021/03/13 00:51:15;;;;;;;;;;;10.80;99.90;;;;;;5055658;28;19924;-48
2021/03/13 00:53:42;;;;;;;;;;;10.80;99.90;;;;;;5038836;28;20349;-48
2021/03/13 00:56:09;;;;;;;;;;;10.80;99.90;;;;;;5039185;28;19929;-47
2021/03/13 00:58:36;;;;;;;;;;;10.90;99.90;;;;;;5055498;28;19931;-48
2021/03/13 01:01:04;;;;;;;;;;;10.90;99.90;;;;;;5055670;28;20375;-52
2021/03/13 01:03:35;;;;;;;;;;;11.00;99.90;;;;;;5056235;28;19925;-50
2021/03/13 01:06:05;;;;;;;;;;;11.00;99.90;;;;;;5055045;28;19925;-50
2021/03/13 01:08:37;;;;;;;;;;;11.10;99.90;;;;;;5055383;28;19925;-51
2021/03/13 01:11:19;;;;;;;;;;;11.20;99.90;;;;;;5038413;28;20398;-49
2021/03/13 01:13:51;;;;;;;;;;;11.20;99.90;;;;;;5056219;28;19928;-47
2021/03/13 01:16:22;;;;;;;;;;;11.20;99.90;;;;;;5055146;28;19932;-48
2021/03/13 01:18:50;;;;;;;;;;;11.10;99.90;;;;;;5055231;28;19970;-51
2021/03/13 01:21:23;;;;;;;;;;;11.00;99.90;;;;;;5039115;28;19931;-48
2021/03/13 01:23:51;;;;;;;;;;;11.00;99.90;;;;;;5056238;28;19992;-48
2021/03/13 01:26:22;;;;;;;;;;;10.90;99.90;;;;;;5054941;28;19948;-48
2021/03/13 01:28:51;;;;;;;;;;;10.80;99.90;;;;;;5021729;28;19933;-47
2021/03/13 01:31:35;;;;;;;;;;;10.90;99.90;;;;;;5056059;28;20256;-47
2021/03/13 01:34:03;;;;;;;;;;;10.80;99.90;;;;;;5054846;28;20371;-48
2021/03/13 01:36:30;;;;;;;;;;;10.70;99.90;;;;;;5038254;28;19925;-47
2021/03/13 01:38:58;;;;;;;;;;;10.60;99.90;;;;;;5038147;28;19925;-47
2021/03/13 01:41:25;;;;;;;;;;;10.60;99.90;;;;;;5021569;28;19975;-47
2021/03/13 01:43:53;;;;;;;;;;;10.60;99.90;;;;;;5054772;28;19925;-49
2021/03/13 01:46:21;;;;;;;;;;;10.60;99.90;;;;;;5054432;28;19925;-47
2021/03/13 01:48:49;;;;;;;;;;;10.60;99.90;;;;;;5037931;28;19932;-48
2021/03/13 01:51:20;;;;;;;;;;;10.60;99.90;;;;;;5022030;28;19925;-47
2021/03/13 01:53:49;;;;;;;;;;;10.60;99.90;;;;;;5037798;28;19968;-48
2021/03/13 01:56:18;;;;;;;;;;;10.60;99.90;;;;;;5038107;28;19932;-48
2021/03/13 01:58:49;;;;;;;;;;;10.60;99.90;;;;;;5037915;28;19928;-48
2021/03/13 02:01:24;;;;;;;;;;;10.60;99.90;;;;;;5054206;28;19925;-51
2021/03/13 02:03:51;;;;;;;;;;;10.50;99.90;;;;;;5020960;28;20382;-52
2021/03/13 02:06:19;;;;;;;;;;;10.40;99.90;;;;;;5054655;28;20390;-52
2021/03/13 02:08:50;;;;;;;;;;;10.40;99.90;;;;;;5037761;28;19925;-49
2021/03/13 02:11:24;;;;;;;;;;;10.50;99.90;;;;;;5021507;28;19928;-47
2021/03/13 02:14:12;;;;;;;;;;;10.50;99.90;;;;;;5055116;28;19925;-47
2021/03/13 02:16:52;;;;;;;;;;;10.60;99.90;;;;;;5037343;28;19932;-50
2021/03/13 02:19:21;;;;;;;;;;;10.50;99.90;;;;;;5053831;28;19929;-49
2021/03/13 02:22:02;;;;;;;;;;;10.50;99.90;;;;;;5053631;28;19940;-52
2021/03/13 02:24:49;;;;;;;;;;;10.50;99.90;;;;;;5004826;28;20010;-49
2021/03/13 02:27:22;;;;;;;;;;;10.60;99.90;;;;;;5053856;28;19925;-48
2021/03/13 02:30:21;;;;;;;;;;;10.60;99.90;;;;;;5040999;28;20469;-47
2021/03/13 02:33:08;;;;;;;;;;;10.70;99.90;;;;;;5039934;28;19925;-48
2021/03/13 02:36:03;;;;;;;;;;;10.60;99.90;;;;;;5053398;28;20003;-47
2021/03/13 02:38:40;;;;;;;;;;;10.70;99.90;;;;;;5037112;28;20446;-50
2021/03/13 02:41:13;;;;;;;;;;;10.60;99.90;;;;;;5020514;28;20383;-50
2021/03/13 02:43:43;;;;;;;;;;;10.60;99.90;;;;;;5004667;28;19978;-47
2021/03/13 02:46:11;;;;;;;;;;;10.50;99.90;;;;;;5054725;28;19925;-47
2021/03/13 02:48:39;;;;;;;;;;;10.50;99.90;;;;;;5036890;28;19925;-48
2021/03/13 02:51:06;;;;;;;;;;;10.50;99.90;;;;;;5036485;28;20015;-47
2021/03/13 02:53:36;;;;;;;;;;;10.50;99.90;;;;;;5053324;28;19924;-47
2021/03/13 02:56:07;;;;;;;;;;;10.50;99.90;;;;;;5004624;28;19928;-47
2021/03/13 02:58:37;;;;;;;;;;;10.50;99.90;;;;;;5020075;28;19974;-47
2021/03/13 03:01:05;;;;;;;;;;;10.60;99.90;;;;;;5020047;28;19925;-48
2021/03/13 03:03:36;;;;;;;;;;;10.60;99.90;;;;;;5036413;28;20275;-47
2021/03/13 03:06:17;;;;;;;;;;;10.70;99.90;;;;;;5053036;28;19929;-49
2021/03/13 03:08:53;;;;;;;;;;;10.70;99.90;;;;;;5020909;28;19925;-47
2021/03/13 03:11:29;;;;;;;;;;;10.70;99.90;;;;;;5005052;28;19979;-47
2021/03/13 03:14:00;;;;;;;;;;;10.60;99.90;;;;;;5052939;28;19931;-47
2021/03/13 03:16:29;;;;;;;;;;;10.70;99.90;;;;;;5053039;28;19928;-48
2021/03/13 03:19:00;;;;;;;;;;;10.60;99.90;;;;;;5003464;28;19925;-49
2021/03/13 03:21:32;;;;;;;;;;;10.70;99.90;;;;;;5036276;28;19962;-54
2021/03/13 03:24:03;;;;;;;;;;;10.70;99.90;;;;;;5036229;28;19931;-53
2021/03/13 03:26:30;;;;;;;;;;;10.70;99.90;;;;;;5053705;28;19979;-52
2021/03/13 03:28:57;;;;;;;;;;;10.70;99.90;;;;;;5019831;28;20279;-47
2021/03/13 03:31:24;;;;;;;;;;;10.60;99.90;;;;;;5052618;28;20293;-48
2021/03/13 03:33:52;;;;;;;;;;;10.60;99.90;;;;;;5052674;28;19929;-49
2021/03/13 03:36:20;;;;;;;;;;;10.60;99.90;;;;;;5052718;28;20418;-50
2021/03/13 03:38:53;;;;;;;;;;;10.70;99.90;;;;;;5036125;28;20366;-49
2021/03/13 03:41:28;;;;;;;;;;;10.60;99.90;;;;;;5037067;28;19956;-47
2021/03/13 03:43:59;;;;;;;;;;;10.50;99.90;;;;;;5036165;28;20039;-48
2021/03/13 03:46:32;;;;;;;;;;;10.50;99.90;;;;;;5036095;28;19925;-50
2021/03/13 03:49:01;;;;;;;;;;;10.50;99.90;;;;;;5053896;28;20523;-51
2021/03/13 03:51:35;;;;;;;;;;;10.40;99.90;;;;;;5035826;28;20378;-52
2021/03/13 03:54:10;;;;;;;;;;;10.50;99.90;;;;;;5037236;28;20286;-49
2021/03/13 03:56:40;;;;;;;;;;;10.50;99.90;;;;;;5036250;28;19924;-47
2021/03/13 03:59:09;;;;;;;;;;;10.40;99.90;;;;;;5036205;28;19928;-48
2021/03/13 04:01:37;;;;;;;;;;;10.40;99.90;;;;;;5035912;28;20290;-48
2021/03/13 04:04:07;;;;;;;;;;;10.40;99.90;;;;;;5035901;28;20006;-49
2021/03/13 04:06:34;;;;;;;;;;;10.50;99.90;;;;;;5019456;28;19978;-47
2021/03/13 04:09:03;;;;;;;;;;;10.50;99.90;;;;;;5035795;28;20015;-46
2021/03/13 04:11:31;;;;;;;;;;;10.50;99.90;;;;;;5019426;28;20433;-47
2021/03/13 04:14:00;;;;;;;;;;;10.50;99.90;;;;;;5035955;28;19932;-47
2021/03/13 04:16:28;;;;;;;;;;;10.50;99.90;;;;;;5053345;28;19988;-48
2021/03/13 04:18:57;;;;;;;;;;;10.40;99.90;;;;;;5035815;28;19931;-46
2021/03/13 04:21:25;;;;;;;;;;;10.40;99.90;;;;;;5053540;28;20362;-47
2021/03/13 04:23:53;;;;;;;;;;;10.30;99.90;;;;;;5052329;28;19925;-46
2021/03/13 04:26:21;;;;;;;;;;;10.40;99.90;;;;;;5035683;28;19931;-48
2021/03/13 04:28:49;;;;;;;;;;;10.40;99.90;;;;;;5019316;28;20031;-46
2021/03/13 04:31:17;;;;;;;;;;;10.40;99.90;;;;;;5039407;28;20333;-47
2021/03/13 04:33:45;;;;;;;;;;;10.30;99.90;;;;;;5057079;28;19925;-49
2021/03/13 04:36:13;;;;;;;;;;;10.30;99.90;;;;;;5056027;28;19929;-47
2021/03/13 04:38:40;;;;;;;;;;;10.40;99.90;;;;;;5039406;28;20012;-53
2021/03/13 04:41:07;;;;;;;;;;;10.40;99.90;;;;;;5056974;28;19928;-53
2021/03/13 04:43:35;;;;;;;;;;;10.40;99.90;;;;;;5039178;28;20019;-53
2021/03/13 04:46:02;;;;;;;;;;;10.40;99.90;;;;;;5038568;28;19955;-49
2021/03/13 04:48:31;;;;;;;;;;;10.50;99.90;;;;;;5056714;28;20023;-48
2021/03/13 04:50:59;;;;;;;;;;;10.50;99.90;;;;;;5056841;28;19979;-48
2021/03/13 04:53:27;;;;;;;;;;;10.40;99.90;;;;;;5022478;28;19925;-48
2021/03/13 04:55:54;;;;;;;;;;;10.40;99.90;;;;;;5038953;28;19975;-51
2021/03/13 04:58:21;;;;;;;;;;;10.40;99.90;;;;;;5022417;28;19932;-53
2021/03/13 05:00:48;;;;;;;;;;;10.40;99.90;;;;;;5038773;28;19968;-53
2021/03/13 05:03:16;;;;;;;;;;;10.40;99.90;;;;;;5038852;28;20375;-49
2021/03/13 05:05:43;;;;;;;;;;;10.40;99.90;;;;;;5055295;28;19928;-47
2021/03/13 05:08:10;;;;;;;;;;;10.40;99.90;;;;;;5055216;28;19924;-46
2021/03/13 05:10:37;;;;;;;;;;;10.40;99.90;;;;;;5038487;28;19971;-50
2021/03/13 05:13:04;;;;;;;;;;;10.40;99.90;;;;;;5038412;28;19932;-47
2021/03/13 05:15:31;;;;;;;;;;;10.50;99.90;;;;;;5038288;28;19987;-48
2021/03/13 05:17:58;;;;;;;;;;;10.50;99.90;;;;;;5056417;28;19925;-49
2021/03/13 05:20:25;;;;;;;;;;;10.50;99.90;;;;;;5022143;28;19924;-47
2021/03/13 05:22:52;;;;;;;;;;;10.60;99.90;;;;;;5056273;28;19956;-47
2021/03/13 05:25:19;;;;;;;;;;;10.60;99.90;;;;;;5055004;28;19932;-47
2021/03/13 05:27:46;;;;;;;;;;;10.60;99.90;;;;;;5055922;28;19925;-47
2021/03/13 05:30:14;;;;;;;;;;;10.60;99.90;;;;;;5038013;28;19925;-47
2021/03/13 05:32:41;;;;;;;;;;;10.50;99.90;;;;;;5038291;28;20333;-47
2021/03/13 05:35:09;;;;;;;;;;;10.70;99.90;;;;;;5038156;28;19987;-47
2021/03/13 05:37:37;;;;;;;;;;;10.70;99.90;;;;;;5038423;28;19975;-48
2021/03/13 05:40:04;;;;;;;;;;;10.90;99.90;;;;;;5055857;28;20032;-46
2021/03/13 05:42:34;;;;;;;;;;;11.00;99.90;;;;;;5037348;28;19929;-46
2021/03/13 05:45:01;;;;;;;;;;;11.20;99.90;;;;;;5021724;28;19928;-47
2021/03/13 05:47:31;;;;;;;;;;;11.40;99.90;;;;;;5038507;28;19931;-47
2021/03/13 05:50:04;;;;;;;;;;;11.50;99.90;;;;;;5037837;28;19970;-47
2021/03/13 05:52:33;;;;;;;;;;;11.70;99.90;;;;;;5038105;28;19924;-46
2021/03/13 05:55:00;;;;;;;;;;;11.90;99.90;;;;;;5037971;28;20019;-47
2021/03/13 05:57:27;;;;;;;;;;;12.10;99.90;;;;;;5037504;28;19960;-53
2021/03/13 05:59:56;;;;;;;;;;;12.20;99.90;;;;;;5054746;28;19931;-52
2021/03/13 06:02:24;;;;;;;;;;;12.20;99.90;;;;;;5037549;28;19968;-53
2021/03/13 06:04:52;;;;;;;;;;;12.40;99.90;;;;;;5055204;28;19924;-49
2021/03/13 06:07:21;;;;;;;;;;;12.60;99.90;;;;;;5055326;28;19998;-47
2021/03/13 06:09:51;;;;;;;;;;;12.70;99.90;;;;;;5055076;28;19933;-47
2021/03/13 06:12:19;;;;;;;;;;;12.80;99.90;;;;;;5021336;28;19925;-50
2021/03/13 06:14:50;;;;;;;;;;;13.00;99.90;;;;;;5037387;28;19933;-49
2021/03/13 06:17:17;;;;;;;;;;;13.00;99.90;;;;;;5036494;28;19931;-53
2021/03/13 06:19:54;;;;;;;;;;;13.10;99.90;;;;;;5037364;28;19925;-51
2021/03/13 06:22:37;;;;;;;;;;;13.20;99.90;;;;;;5053873;28;19940;-50
2021/03/13 06:25:10;;;;;;;;;;;13.40;99.90;;;;;;5054002;28;19925;-48
2021/03/13 06:27:38;;;;;;;;;;;13.60;99.90;;;;;;5053875;28;19925;-49
2021/03/13 06:30:06;;;;;;;;;;;13.60;99.90;;;;;;5037043;28;19935;-51
2021/03/13 06:32:34;;;;;;;;;;;13.60;99.90;;;;;;5020654;28;19924;-53
2021/03/13 06:35:20;;;;;;;;;;;13.70;99.90;;;;;;5037061;28;19932;-48
2021/03/13 06:37:49;;;;;;;;;;;13.70;99.90;;;;;;5053481;28;20306;-51
2021/03/13 06:40:29;;;;;;;;;;;13.70;99.90;;;;;;5037115;28;19932;-49
2021/03/13 06:43:00;;;;;;;;;;;13.60;99.90;;;;;;5054614;28;19967;-52
2021/03/13 06:45:28;;;;;;;;;;;13.70;99.90;;;;;;5037041;28;19931;-50
2021/03/13 06:47:56;;;;;;;;;;;13.70;99.90;;;;;;5036870;28;19925;-53
2021/03/13 06:50:28;;;;;;;;;;;14.00;99.90;;;;;;5036767;28;19931;-48
2021/03/13 06:53:08;;;;;;;;;;;14.20;99.90;;;;;;5036717;28;19925;-51
2021/03/13 06:55:36;;;;;;;;;;;14.30;99.90;;;;;;5020561;28;19925;-48
2021/03/13 06:58:11;;;;;;;;;;;14.50;99.90;;;;;;5036609;28;19932;-50
2021/03/13 07:00:40;;;;;;;;;;;14.70;99.90;;;;;;5054534;28;19931;-53
2021/03/13 07:03:14;;;;;;;;;;;15.00;99.90;;;;;;5036383;28;19929;-51
2021/03/13 07:05:42;;;;;;;;;;;15.30;99.90;;;;;;5003963;28;19925;-52
2021/03/13 07:08:28;;;;;;;;;;;15.60;99.90;;;;;;5054232;28;19932;-49
2021/03/13 07:11:16;;;;;;;;;;;15.80;99.90;;;;;;5019893;28;20036;-49
2021/03/13 07:13:45;;;;;;;;;;;16.10;99.90;;;;;;5053320;28;19924;-50
2021/03/13 07:16:19;;;;;;;;;;;16.20;99.90;;;;;;5019949;28;19925;-52
2021/03/13 07:18:47;;;;;;;;;;;16.30;99.90;;;;;;5054034;28;20390;-51
2021/03/13 07:21:18;;;;;;;;;;;16.30;99.90;;;;;;5036350;28;19924;-53
2021/03/13 07:23:57;;;;;;;;;;;16.00;99.90;;;;;;5020243;28;19971;-52
2021/03/13 07:26:34;;;;;;;;;;;15.80;99.90;;;;;;5021147;28;19925;-48
2021/03/13 07:29:01;;;;;;;;;;;15.80;99.90;;;;;;5054037;28;19947;-53
2021/03/13 07:31:30;;;;;;;;;;;15.70;99.90;;;;;;5053730;28;20015;-51
2021/03/13 07:34:01;;;;;;;;;;;15.70;99.90;;;;;;5052684;28;19978;-51
2021/03/13 07:36:29;;;;;;;;;;;15.70;99.90;;;;;;5036480;28;19925;-50
2021/03/13 07:39:03;;;;;;;;;;;15.70;99.90;;;;;;5036055;28;19926;-52
2021/03/13 07:41:35;;;;;;;;;;;15.60;99.90;;;;;;5036009;28;19925;-48
2021/03/13 07:44:08;;;;;;;;;;;15.60;99.90;;;;;;5036190;28;19936;-48
2021/03/13 07:46:42;;;;;;;;;;;15.70;99.90;;;;;;5052791;28;19925;-51
2021/03/13 07:49:12;;;;;;;;;;;15.80;99.90;;;;;;5036041;28;19928;-50
2021/03/13 07:51:40;;;;;;;;;;;16.00;99.90;;;;;;5035847;28;19924;-52
2021/03/13 07:54:08;;;;;;;;;;;16.20;99.90;;;;;;5053632;28;19935;-51
2021/03/13 07:56:38;;;;;;;;;;;16.00;99.90;;;;;;5053649;28;20293;-52
2021/03/13 07:59:12;;;;;;;;;;;16.00;99.90;;;;;;5019227;28;19963;-52
2021/03/13 08:01:49;;;;;;;;;;;15.90;99.90;;;;;;5036614;28;19933;-51
2021/03/13 08:04:36;;;;;;;;;;;15.90;99.90;;;;;;5020236;28;20337;-50
2021/03/13 08:07:03;;;;;;;;;;;15.80;99.90;;;;;;5039727;28;19982;-52
2021/03/13 08:09:30;;;;;;;;;;;16.10;99.90;;;;;;5006874;28;19924;-54
2021/03/13 08:12:01;;;;;;;;;;;16.50;99.80;;;;;;5056396;28;19931;-50
2021/03/13 08:14:32;;;;;;;;;;;16.80;98.40;;;;;;5039989;28;20016;-54
2021/03/13 08:17:22;;;;;;;;;;;17.20;98.10;;;;;;5040233;28;19925;-52
2021/03/13 08:20:04;;;;;;;;;;;17.50;97.10;;;;;;5023024;28;19932;-53
2021/03/13 08:22:33;;;;;;;;;;;17.70;96.80;;;;;;5057203;28;19986;-52
2021/03/13 08:25:23;;;;;;;;;;;18.00;97.00;;;;;;5039491;28;20333;-51
2021/03/13 08:27:50;;;;;;;;;;;18.30;96.30;;;;;;5055976;28;19924;-52
2021/03/13 08:30:20;;;;;;;;;;;18.30;96.00;;;;;;5056872;28;19925;-51
2021/03/13 08:33:05;;;;;;;;;;;18.20;95.40;;;;;;5039666;28;19924;-50
2021/03/13 08:35:38;;;;;;;;;;;18.10;96.00;;;;;;5057197;28;19924;-53
2021/03/13 08:38:05;;;;;;;;;;;18.40;96.10;;;;;;5039307;28;20011;-52
2021/03/13 08:40:33;;;;;;;;;;;18.60;96.10;;;;;;5039413;28;19929;-54
2021/03/13 08:43:20;;;;;;;;;;;18.70;95.10;;;;;;5056844;28;19924;-51
2021/03/13 08:45:47;;;;;;;;;;;18.70;95.00;;;;;;5039127;28;19975;-53
2021/03/13 08:48:40;;;;;;;;;;;18.80;94.90;;;;;;5038772;28;19932;-53
2021/03/13 08:51:15;;;;;;;;;;;18.90;94.90;;;;;;5056587;28;19936;-52
2021/03/13 08:53:42;;;;;;;;;;;18.90;95.20;;;;;;5006878;28;20697;-50
2021/03/13 08:56:49;;;;;;;;;;;18.80;94.50;;;;;;5055459;28;20330;-53
2021/03/13 08:59:18;;;;;;;;;;;18.90;93.60;;;;;;4959777;28;19926;-52
2021/03/13 09:02:04;;;;;;;;;;;19.20;93.40;;;;;;4975804;28;20441;-53
2021/03/13 09:04:32;;;;;;;;;;;19.30;92.80;;;;;;5009460;28;19932;-54
2021/03/13 09:07:01;;;;;;;;;;;19.40;92.10;;;;;;5056438;28;19925;-55
2021/03/13 09:09:29;;;;;;;;;;;19.70;92.30;;;;;;5022261;28;19971;-53
2021/03/13 09:12:06;;;;;;;;;;;20.00;92.00;;;;;;5038572;28;19932;-54
2021/03/13 09:14:37;;;;;;;;;;;19.90;91.50;;;;;;5056207;28;19925;-53
2021/03/13 09:17:11;;;;;;;;;;;19.40;91.30;;;;;;5004429;28;20398;-54
2021/03/13 09:19:39;;;;;;;;;;;19.20;91.80;;;;;;5055066;28;19924;-49
2021/03/13 09:22:10;;;;;;;;;;;19.00;91.60;;;;;;5038532;28;20390;-51
2021/03/13 09:24:37;;;;;;;;;;;18.80;91.90;;;;;;5038481;28;19925;-54
2021/03/13 09:27:05;;;;;;;;;;;18.60;92.50;;;;;;5056217;28;19979;-61
2021/03/13 09:29:32;;;;;;;;;;;18.50;92.80;;;;;;5056090;28;19935;-51
2021/03/13 09:32:09;;;;;;;;;;;18.40;93.40;;;;;;5037890;28;19947;-54
2021/03/13 09:34:42;;;;;;;;;;;18.30;92.80;;;;;;5021708;28;19972;-57
2021/03/13 09:37:29;;;;;;;;;;;18.20;93.00;;;;;;5023390;28;19925;-52
2021/03/13 09:39:59;;;;;;;;;;;18.30;93.00;;;;;;5021764;28;19931;-54
2021/03/13 09:42:29;;;;;;;;;;;18.40;93.20;;;;;;5038026;28;19925;-52
2021/03/13 09:45:03;;;;;;;;;;;18.40;92.10;;;;;;5038134;28;19928;-52
2021/03/13 09:47:33;;;;;;;;;;;18.30;91.60;;;;;;5038231;28;19925;-54
2021/03/13 09:50:08;;;;;;;;;;;18.10;91.90;;;;;;5022082;28;19924;-56
2021/03/13 09:52:37;;;;;;;;;;;18.20;92.50;;;;;;5054577;28;20393;-54
2021/03/13 09:55:07;;;;;;;;;;;18.30;92.50;;;;;;5037748;28;19924;-56
2021/03/13 09:57:35;;;;;;;;;;;18.20;92.10;;;;;;5021358;28;19925;-56
2021/03/13 10:00:09;;;;;;;;;;;18.30;92.20;;;;;;5021452;28;19925;-56
2021/03/13 10:02:38;;;;;;;;;;;18.30;92.40;;;;;;5021190;28;20015;-56
2021/03/13 10:05:09;;;;;;;;;;;18.30;92.70;;;;;;5055476;28;19947;-57
2021/03/13 10:07:41;;;;;;;;;;;18.30;92.00;;;;;;5038005;28;19925;-55
2021/03/13 10:10:18;;;;;;;;;;;18.20;91.60;;;;;;5021845;28;20021;-55
2021/03/13 10:12:47;;;;;;;;;;;18.20;91.80;;;;;;5037399;28;19974;-54
2021/03/13 10:15:22;;;;;;;;;;;18.10;91.60;;;;;;5054000;28;20040;-54
2021/03/13 10:17:50;;;;;;;;;;;17.80;91.90;;;;;;5021282;28;19992;-56
2021/03/13 10:20:17;;;;;;;;;;;17.80;92.50;;;;;;5055014;28;19925;-55
2021/03/13 10:22:45;;;;;;;;;;;17.90;92.50;;;;;;5037497;28;20015;-56
2021/03/13 10:25:13;;;;;;;;;;;17.90;92.10;;;;;;5055162;28;19929;-55
2021/03/13 10:27:41;;;;;;;;;;;17.90;92.00;;;;;;5054374;28;19924;-54
2021/03/13 10:30:10;;;;;;;;;;;17.80;92.10;;;;;;5037233;28;20025;-56
2021/03/13 10:32:38;;;;;;;;;;;17.80;92.10;;;;;;5036855;28;19924;-55
2021/03/13 10:35:21;;;;;;;;;;;17.60;92.20;;;;;;5036722;28;19931;-55
2021/03/13 10:37:52;;;;;;;;;;;17.70;92.20;;;;;;5036736;28;20306;-55
2021/03/13 10:40:29;;;;;;;;;;;17.80;92.20;;;;;;5054330;28;19925;-55
2021/03/13 10:43:13;;;;;;;;;;;17.70;92.00;;;;;;5054271;28;20415;-53
2021/03/13 10:46:06;;;;;;;;;;;17.60;92.20;;;;;;5054260;28;19932;-54
2021/03/13 10:48:35;;;;;;;;;;;17.60;92.20;;;;;;5044794;28;20268;-54
2021/03/13 10:51:03;;;;;;;;;;;17.60;92.20;;;;;;5020192;28;19971;-54
2021/03/13 10:53:31;;;;;;;;;;;17.60;92.20;;;;;;5020402;28;20043;-54
2021/03/13 10:55:59;;;;;;;;;;;17.60;92.30;;;;;;5036408;28;19925;-55
2021/03/13 10:58:28;;;;;;;;;;;17.60;92.20;;;;;;5036499;28;19925;-54
2021/03/13 11:00:56;;;;;;;;;;;17.60;92.30;;;;;;5053992;28;20015;-55
2021/03/13 11:03:24;;;;;;;;;;;17.70;92.30;;;;;;5019880;28;19978;-55
2021/03/13 11:05:52;;;;;;;;;;;17.70;92.20;;;;;;5052838;28;19955;-56
2021/03/13 11:08:22;;;;;;;;;;;17.80;92.30;;;;;;5019688;28;21612;-54
2021/03/13 11:15:08;;;;;;;;;;;17.90;92.30;;;;;;5036058;28;20282;-54
2021/03/13 11:17:35;;;;;;;;;;;17.80;92.50;;;;;;5036039;28;20000;-54
2021/03/13 11:20:03;;;;;;;;;;;17.70;92.50;;;;;;5053859;28;19931;-55
2021/03/13 11:22:32;;;;;;;;;;;17.80;92.70;;;;;;5036018;28;19929;-55
2021/03/13 11:25:00;;;;;;;;;;;17.90;92.90;;;;;;5035857;28;19925;-55
2021/03/13 11:27:27;;;;;;;;;;;17.90;92.90;;;;;;5035871;28;19924;-55
2021/03/13 11:29:54;;;;;;;;;;;18.00;92.70;;;;;;5053633;28;20015;-52
2021/03/13 11:32:21;;;;;;;;;;;18.10;92.60;;;;;;5035971;28;19925;-55
2021/03/13 11:34:49;;;;;;;;;;;18.10;92.40;;;;;;5036047;28;20029;-55
2021/03/13 11:37:16;;;;;;;;;;;18.10;92.40;;;;;;5036285;28;20011;-53
2021/03/13 11:39:44;;;;;;;;;;;18.20;92.50;;;;;;5051751;28;19925;-55
2021/03/13 11:42:11;;;;;;;;;;;18.20;92.40;;;;;;5035588;28;19982;-54
2021/03/13 11:44:38;;;;;;;;;;;18.20;92.70;;;;;;5019202;28;19925;-48
2021/03/13 11:47:05;;;;;;;;;;;18.20;93.80;;;;;;5035594;28;20379;-52
2021/03/13 11:49:33;;;;;;;;;;;18.20;92.70;;;;;;5053461;28;20031;-53
2021/03/13 11:52:00;;;;;;;;;;;18.20;93.00;;;;;;5051385;28;19951;-52
2021/03/13 11:54:27;;;;;;;;;;;18.00;92.70;;;;;;5018832;28;20014;-51
2021/03/13 11:56:54;;;;;;;;;;;18.00;92.60;;;;;;5052230;28;20370;-50
2021/03/13 11:59:22;;;;;;;;;;;18.10;92.70;;;;;;5019219;28;19925;-52
2021/03/13 12:01:49;;;;;;;;;;;18.00;92.90;;;;;;5053285;28;19978;-53
2021/03/13 12:04:17;;;;;;;;;;;17.90;92.80;;;;;;5015892;28;19925;-53
2021/03/13 12:06:44;;;;;;;;;;;17.90;92.80;;;;;;5033287;28;19972;-53
2021/03/13 12:09:11;;;;;;;;;;;17.70;92.80;;;;;;5032466;28;19925;-51
2021/03/13 12:11:39;;;;;;;;;;;17.70;92.80;;;;;;5015836;28;19925;-49
2021/03/13 12:14:06;;;;;;;;;;;17.80;93.00;;;;;;5033559;28;19932;-53
2021/03/13 12:16:33;;;;;;;;;;;17.90;93.20;;;;;;5032625;28;19929;-46
2021/03/13 12:19:01;;;;;;;;;;;17.90;93.10;;;;;;5035494;28;19929;-47
2021/03/13 12:21:28;;;;;;;;;;;18.00;93.30;;;;;;5037709;28;19953;-46
2021/03/13 12:23:55;;;;;;;;;;;18.10;93.30;;;;;;5042195;28;19925;-47
2021/03/13 12:26:22;;;;;;;;;;;18.30;93.40;;;;;;5027695;28;19929;-49
2021/03/13 12:28:49;;;;;;;;;;;18.40;93.50;;;;;;5040502;28;20053;-47
2021/03/13 12:31:17;;;;;;;;;;;18.60;92.90;;;;;;5026878;28;19931;-47
2021/03/13 12:33:47;;;;;;;;;;;18.60;92.90;;;;;;5041722;28;19953;-48
2021/03/13 12:36:14;;;;;;;;;;;18.70;93.10;;;;;;5043161;28;20453;-55
2021/03/13 12:38:41;;;;;;;;;;;18.60;92.50;;;;;;5043513;28;20379;-53
2021/03/13 12:41:08;;;;;;;;;;;18.70;92.70;;;;;;5042554;28;20301;-52
2021/03/13 12:43:42;;;;;;;;;;;18.80;92.30;;;;;;5025553;28;20298;-52
2021/03/13 12:46:17;;;;;;;;;;;18.90;92.20;;;;;;5024687;28;19980;-50
2021/03/13 12:48:45;;;;;;;;;;;19.00;92.50;;;;;;5035541;28;19929;-52
2021/03/13 12:51:16;;;;;;;;;;;19.10;92.40;;;;;;5035409;28;19932;-48
2021/03/13 12:53:44;;;;;;;;;;;19.00;92.90;;;;;;5035623;28;19929;-51
2021/03/13 12:56:12;;;;;;;;;;;18.80;93.20;;;;;;5002962;28;19932;-53
2021/03/13 12:58:39;;;;;;;;;;;18.70;93.70;;;;;;5036858;28;19979;-52
2021/03/13 13:01:08;;;;;;;;;;;18.60;93.40;;;;;;5035655;28;20013;-49
2021/03/13 13:03:36;;;;;;;;;;;18.40;93.50;;;;;;5018991;28;20380;-47
2021/03/13 13:06:03;;;;;;;;;;;18.40;93.20;;;;;;5018842;28;19929;-51
2021/03/13 13:08:31;;;;;;;;;;;18.30;93.70;;;;;;5035330;28;19925;-48
2021/03/13 13:10:58;;;;;;;;;;;18.20;93.70;;;;;;5036450;28;19929;-49
2021/03/13 13:13:25;;;;;;;;;;;18.10;94.10;;;;;;5018840;28;19925;-52
2021/03/13 13:15:58;;;;;;;;;;;18.10;94.00;;;;;;5035274;28;19971;-47
2021/03/13 13:18:28;;;;;;;;;;;18.20;94.40;;;;;;5035140;28;19929;-48
2021/03/13 13:20:55;;;;;;;;;;;18.20;94.40;;;;;;5002630;28;19926;-48
2021/03/13 13:23:25;;;;;;;;;;;18.10;94.50;;;;;;5035007;28;20020;-52
2021/03/13 13:25:53;;;;;;;;;;;18.10;94.80;;;;;;5019169;28;19929;-50
2021/03/13 13:28:21;;;;;;;;;;;18.00;94.80;;;;;;5034319;28;20303;-52
2021/03/13 13:30:51;;;;;;;;;;;17.90;95.00;;;;;;5036154;28;19962;-51
2021/03/13 13:33:19;;;;;;;;;;;17.70;95.40;;;;;;5018677;28;20379;-49
2021/03/13 13:35:47;;;;;;;;;;;17.70;95.50;;;;;;5034831;28;19925;-52
2021/03/13 13:38:15;;;;;;;;;;;17.60;95.80;;;;;;5034809;28;19929;-50
2021/03/13 13:40:42;;;;;;;;;;;17.60;95.60;;;;;;5036024;28;19925;-52
2021/03/13 13:43:13;;;;;;;;;;;17.60;95.90;;;;;;5036679;28;19925;-50
2021/03/13 13:45:40;;;;;;;;;;;17.70;95.60;;;;;;5021718;28;19925;-47
2021/03/13 13:48:08;;;;;;;;;;;17.70;95.40;;;;;;5048782;28;19933;-53
2021/03/13 13:50:35;;;;;;;;;;;17.70;95.10;;;;;;5045212;28;19931;-51
2021/03/13 13:53:03;;;;;;;;;;;17.70;95.50;;;;;;5043889;28;20285;-53
2021/03/13 13:55:31;;;;;;;;;;;17.70;96.00;;;;;;5043768;28;20379;-54
2021/03/13 13:58:01;;;;;;;;;;;17.70;96.20;;;;;;5028434;28;20372;-53
2021/03/13 14:00:28;;;;;;;;;;;17.70;96.00;;;;;;5042926;28;19970;-51
2021/03/13 14:02:58;;;;;;;;;;;17.70;96.20;;;;;;5050385;28;20242;-52
2021/03/13 14:05:25;;;;;;;;;;;17.70;96.10;;;;;;5066075;28;19932;-49
2021/03/13 14:07:53;;;;;;;;;;;17.70;96.10;;;;;;5065913;28;19937;-51
2021/03/13 14:10:30;;;;;;;;;;;17.60;96.00;;;;;;5065563;28;20286;-48
2021/03/13 14:13:00;;;;;;;;;;;17.60;96.30;;;;;;5038532;28;20379;-53
2021/03/13 14:15:28;;;;;;;;;;;17.50;96.40;;;;;;5035862;28;19924;-48
2021/03/13 14:17:55;;;;;;;;;;;17.60;96.60;;;;;;5053609;28;19925;-50
2021/03/13 14:20:22;;;;;;;;;;;17.40;96.90;;;;;;5036463;28;19944;-51
2021/03/13 14:22:50;;;;;;;;;;;17.40;97.10;;;;;;5036432;28;20019;-48
2021/03/13 14:25:20;;;;;;;;;;;17.30;97.00;;;;;;5020595;28;19925;-52
2021/03/13 14:27:50;;;;;;;;;;;17.30;97.10;;;;;;5054047;28;19964;-49
2021/03/13 14:30:18;;;;;;;;;;;17.20;97.20;;;;;;5036243;28;19931;-49
2021/03/13 14:32:46;;;;;;;;;;;17.20;97.00;;;;;;5036199;28;19925;-50
2021/03/13 14:35:19;;;;;;;;;;;17.20;96.80;;;;;;5036614;28;19925;-50
2021/03/13 14:37:46;;;;;;;;;;;17.20;96.80;;;;;;5019789;28;20345;-48
2021/03/13 14:40:15;;;;;;;;;;;17.10;96.90;;;;;;5036194;28;19962;-48